sensor_id;sensor_type;location;lat;lon;timestamp;temperature;humidity
32296;DHT22;18781;51.550;5.418;2023-02-18T00:01:17;14.50;72.80
32296;DHT22;18781;51.550;5.418;2023-02-18T00:03:43;14.50;72.80
32296;DHT22;18781;51.550;5.418;2023-02-18T00:06:36;14.50;72.90
32296;DHT22;18781;51.550;5.418;2023-02-18T00:09:04;14.50;73.00
32296;DHT22;18781;51.550;5.418;2023-02-18T00:11:32;14.50;72.80
32296;DHT22;18781;51.550;5.418;2023-02-18T00:14:01;14.50;72.90
32296;DHT22;18781;51.550;5.418;2023-02-18T00:16:28;14.50;72.90
32296;DHT22;18781;51.550;5.418;2023-02-18T00:18:55;14.50;72.90
32296;DHT22;18781;51.550;5.418;2023-02-18T00:21:21;14.50;72.90
32296;DHT22;18781;51.550;5.418;2023-02-18T00:23:47;14.50;73.50
32296;DHT22;18781;51.550;5.418;2023-02-18T00:26:15;14.50;73.00
32296;DHT22;18781;51.550;5.418;2023-02-18T00:28:41;14.50;73.00
32296;DHT22;18781;51.550;5.418;2023-02-18T00:31:12;14.50;73.00
32296;DHT22;18781;51.550;5.418;2023-02-18T00:33:39;14.50;73.10
32296;DHT22;18781;51.550;5.418;2023-02-18T00:36:07;14.50;73.10
32296;DHT22;18781;51.550;5.418;2023-02-18T00:38:33;14.50;73.10
32296;DHT22;18781;51.550;5.418;2023-02-18T00:40:59;14.50;73.10
32296;DHT22;18781;51.550;5.418;2023-02-18T00:43:25;14.50;73.20
32296;DHT22;18781;51.550;5.418;2023-02-18T00:45:51;14.50;73.20
32296;DHT22;18781;51.550;5.418;2023-02-18T00:48:17;14.50;73.30
32296;DHT22;18781;51.550;5.418;2023-02-18T00:50:43;14.50;73.30
32296;DHT22;18781;51.550;5.418;2023-02-18T00:53:09;14.50;73.40
32296;DHT22;18781;51.550;5.418;2023-02-18T00:55:39;14.50;73.40
32296;DHT22;18781;51.550;5.418;2023-02-18T00:58:05;14.50;73.60
32296;DHT22;18781;51.550;5.418;2023-02-18T01:00:30;14.50;73.50
32296;DHT22;18781;51.550;5.418;2023-02-18T01:02:56;14.50;73.50
32296;DHT22;18781;51.550;5.418;2023-02-18T01:05:21;14.50;73.60
32296;DHT22;18781;51.550;5.418;2023-02-18T01:07:47;14.40;73.50
32296;DHT22;18781;51.550;5.418;2023-02-18T01:10:13;14.50;73.60
32296;DHT22;18781;51.550;5.418;2023-02-18T01:12:39;14.50;73.70
32296;DHT22;18781;51.550;5.418;2023-02-18T01:15:05;14.50;73.70
32296;DHT22;18781;51.550;5.418;2023-02-18T01:17:31;14.50;73.80
32296;DHT22;18781;51.550;5.418;2023-02-18T01:19:57;14.50;73.80
32296;DHT22;18781;51.550;5.418;2023-02-18T01:22:22;14.50;73.80
32296;DHT22;18781;51.550;5.418;2023-02-18T01:24:48;14.50;73.90
32296;DHT22;18781;51.550;5.418;2023-02-18T01:27:14;14.50;73.90
32296;DHT22;18781;51.550;5.418;2023-02-18T01:29:39;14.50;74.00
32296;DHT22;18781;51.550;5.418;2023-02-18T01:32:05;14.50;74.10
32296;DHT22;18781;51.550;5.418;2023-02-18T01:34:30;14.40;74.10
32296;DHT22;18781;51.550;5.418;2023-02-18T01:36:56;14.50;74.20
32296;DHT22;18781;51.550;5.418;2023-02-18T01:39:21;14.40;74.20
32296;DHT22;18781;51.550;5.418;2023-02-18T01:41:47;14.40;74.30
32296;DHT22;18781;51.550;5.418;2023-02-18T01:44:20;14.40;74.30
32296;DHT22;18781;51.550;5.418;2023-02-18T01:46:47;14.40;74.60
32296;DHT22;18781;51.550;5.418;2023-02-18T01:49:24;14.40;74.60
32296;DHT22;18781;51.550;5.418;2023-02-18T01:51:55;14.40;74.70
32296;DHT22;18781;51.550;5.418;2023-02-18T01:54:27;14.40;74.70
32296;DHT22;18781;51.550;5.418;2023-02-18T01:56:56;14.30;74.80
32296;DHT22;18781;51.550;5.418;2023-02-18T01:59:25;14.30;74.80
32296;DHT22;18781;51.550;5.418;2023-02-18T02:01:53;14.30;74.80
32296;DHT22;18781;51.550;5.418;2023-02-18T02:04:19;14.30;74.90
32296;DHT22;18781;51.550;5.418;2023-02-18T02:06:45;14.30;74.90
32296;DHT22;18781;51.550;5.418;2023-02-18T02:09:13;14.30;75.00
32296;DHT22;18781;51.550;5.418;2023-02-18T02:11:49;14.30;75.00
32296;DHT22;18781;51.550;5.418;2023-02-18T02:14:39;14.30;75.20
32296;DHT22;18781;51.550;5.418;2023-02-18T02:39:41;14.10;75.70
32296;DHT22;18781;51.550;5.418;2023-02-18T02:43:03;14.20;75.80
32296;DHT22;18781;51.550;5.418;2023-02-18T02:46:02;14.10;75.90
32296;DHT22;18781;51.550;5.418;2023-02-18T02:54:18;14.10;76.00
32296;DHT22;18781;51.550;5.418;2023-02-18T02:56:44;14.10;76.10
32296;DHT22;18781;51.550;5.418;2023-02-18T02:59:14;14.10;76.00
32296;DHT22;18781;51.550;5.418;2023-02-18T03:02:33;14.10;76.10
32296;DHT22;18781;51.550;5.418;2023-02-18T03:13:15;14.10;76.40
32296;DHT22;18781;51.550;5.418;2023-02-18T03:16:04;14.10;76.30
32296;DHT22;18781;51.550;5.418;2023-02-18T03:18:38;14.10;76.40
32296;DHT22;18781;51.550;5.418;2023-02-18T03:21:24;14.00;76.10
32296;DHT22;18781;51.550;5.418;2023-02-18T03:26:51;14.10;76.50
32296;DHT22;18781;51.550;5.418;2023-02-18T03:29:18;14.00;76.30
32296;DHT22;18781;51.550;5.418;2023-02-18T03:31:48;14.00;76.30
32296;DHT22;18781;51.550;5.418;2023-02-18T03:34:22;14.00;76.50
32296;DHT22;18781;51.550;5.418;2023-02-18T03:36:49;14.00;76.60
32296;DHT22;18781;51.550;5.418;2023-02-18T03:39:17;14.00;76.50
32296;DHT22;18781;51.550;5.418;2023-02-18T03:41:43;14.00;76.60
32296;DHT22;18781;51.550;5.418;2023-02-18T03:44:10;14.00;76.60
32296;DHT22;18781;51.550;5.418;2023-02-18T03:46:38;14.00;76.70
32296;DHT22;18781;51.550;5.418;2023-02-18T03:49:05;13.90;76.80
32296;DHT22;18781;51.550;5.418;2023-02-18T03:51:31;13.90;76.70
32296;DHT22;18781;51.550;5.418;2023-02-18T03:53:56;14.00;76.90
32296;DHT22;18781;51.550;5.418;2023-02-18T03:56:22;13.90;76.80
32296;DHT22;18781;51.550;5.418;2023-02-18T03:58:48;13.90;76.90
32296;DHT22;18781;51.550;5.418;2023-02-18T04:01:14;13.90;76.90
32296;DHT22;18781;51.550;5.418;2023-02-18T04:03:40;13.90;76.90
32296;DHT22;18781;51.550;5.418;2023-02-18T04:06:06;13.90;76.90
32296;DHT22;18781;51.550;5.418;2023-02-18T04:08:32;13.90;77.00
32296;DHT22;18781;51.550;5.418;2023-02-18T04:10:57;13.90;77.50
32296;DHT22;18781;51.550;5.418;2023-02-18T04:13:23;13.90;77.00
32296;DHT22;18781;51.550;5.418;2023-02-18T04:15:49;13.80;77.00
32296;DHT22;18781;51.550;5.418;2023-02-18T04:18:15;13.80;77.10
32296;DHT22;18781;51.550;5.418;2023-02-18T04:20:41;13.90;77.10
32296;DHT22;18781;51.550;5.418;2023-02-18T04:23:06;13.90;77.10
32296;DHT22;18781;51.550;5.418;2023-02-18T04:25:32;13.80;77.10
32296;DHT22;18781;51.550;5.418;2023-02-18T04:28:01;13.80;77.10
32296;DHT22;18781;51.550;5.418;2023-02-18T04:30:26;13.80;77.10
32296;DHT22;18781;51.550;5.418;2023-02-18T04:32:53;13.90;77.10
32296;DHT22;18781;51.550;5.418;2023-02-18T04:35:18;13.80;77.10
32296;DHT22;18781;51.550;5.418;2023-02-18T04:37:44;13.90;77.20
32296;DHT22;18781;51.550;5.418;2023-02-18T04:40:10;13.90;77.20
32296;DHT22;18781;51.550;5.418;2023-02-18T04:42:35;13.80;77.20
32296;DHT22;18781;51.550;5.418;2023-02-18T04:45:01;13.80;77.20
32296;DHT22;18781;51.550;5.418;2023-02-18T04:47:27;13.80;77.30
32296;DHT22;18781;51.550;5.418;2023-02-18T04:49:52;13.80;77.30
32296;DHT22;18781;51.550;5.418;2023-02-18T04:52:18;13.80;77.30
32296;DHT22;18781;51.550;5.418;2023-02-18T04:54:44;13.80;77.40
32296;DHT22;18781;51.550;5.418;2023-02-18T04:57:09;13.80;77.30
32296;DHT22;18781;51.550;5.418;2023-02-18T04:59:35;13.80;77.40
32296;DHT22;18781;51.550;5.418;2023-02-18T05:02:01;13.70;77.40
32296;DHT22;18781;51.550;5.418;2023-02-18T05:04:27;13.70;77.40
32296;DHT22;18781;51.550;5.418;2023-02-18T05:06:53;13.70;77.50
32296;DHT22;18781;51.550;5.418;2023-02-18T05:09:18;13.70;77.50
32296;DHT22;18781;51.550;5.418;2023-02-18T05:11:45;13.70;77.50
32296;DHT22;18781;51.550;5.418;2023-02-18T05:14:13;13.80;77.60
32296;DHT22;18781;51.550;5.418;2023-02-18T05:16:38;13.70;77.50
32296;DHT22;18781;51.550;5.418;2023-02-18T05:19:04;13.70;77.60
32296;DHT22;18781;51.550;5.418;2023-02-18T05:21:30;13.70;77.60
32296;DHT22;18781;51.550;5.418;2023-02-18T05:23:56;13.70;77.60
32296;DHT22;18781;51.550;5.418;2023-02-18T05:26:22;13.70;77.60
32296;DHT22;18781;51.550;5.418;2023-02-18T05:28:47;13.70;77.70
32296;DHT22;18781;51.550;5.418;2023-02-18T05:31:13;13.70;77.60
32296;DHT22;18781;51.550;5.418;2023-02-18T05:33:39;13.70;77.70
32296;DHT22;18781;51.550;5.418;2023-02-18T05:36:04;13.70;77.70
32296;DHT22;18781;51.550;5.418;2023-02-18T05:38:30;13.70;77.70
32296;DHT22;18781;51.550;5.418;2023-02-18T05:40:57;13.70;77.70
32296;DHT22;18781;51.550;5.418;2023-02-18T05:43:22;13.70;77.70
32296;DHT22;18781;51.550;5.418;2023-02-18T05:45:48;13.70;77.70
32296;DHT22;18781;51.550;5.418;2023-02-18T05:48:13;13.70;77.70
32296;DHT22;18781;51.550;5.418;2023-02-18T05:50:39;13.70;77.70
32296;DHT22;18781;51.550;5.418;2023-02-18T05:53:05;13.70;77.70
32296;DHT22;18781;51.550;5.418;2023-02-18T05:55:30;13.60;77.80
32296;DHT22;18781;51.550;5.418;2023-02-18T05:57:56;13.60;77.70
32296;DHT22;18781;51.550;5.418;2023-02-18T06:00:22;13.60;77.70
32296;DHT22;18781;51.550;5.418;2023-02-18T06:02:47;13.60;77.70
32296;DHT22;18781;51.550;5.418;2023-02-18T06:05:13;13.70;77.80
32296;DHT22;18781;51.550;5.418;2023-02-18T06:07:39;13.60;77.80
32296;DHT22;18781;51.550;5.418;2023-02-18T06:10:06;13.60;77.80
32296;DHT22;18781;51.550;5.418;2023-02-18T06:12:32;13.60;77.90
32296;DHT22;18781;51.550;5.418;2023-02-18T06:14:57;13.60;78.00
32296;DHT22;18781;51.550;5.418;2023-02-18T06:17:23;13.60;77.90
32296;DHT22;18781;51.550;5.418;2023-02-18T06:19:48;13.60;77.90
32296;DHT22;18781;51.550;5.418;2023-02-18T06:22:14;13.60;78.00
32296;DHT22;18781;51.550;5.418;2023-02-18T06:24:40;13.60;78.00
32296;DHT22;18781;51.550;5.418;2023-02-18T06:27:06;13.60;78.00
32296;DHT22;18781;51.550;5.418;2023-02-18T06:29:32;13.60;78.10
32296;DHT22;18781;51.550;5.418;2023-02-18T06:31:58;13.60;78.10
32296;DHT22;18781;51.550;5.418;2023-02-18T06:34:24;13.60;78.10
32296;DHT22;18781;51.550;5.418;2023-02-18T06:36:50;13.60;78.10
32296;DHT22;18781;51.550;5.418;2023-02-18T06:39:15;13.60;78.10
32296;DHT22;18781;51.550;5.418;2023-02-18T06:41:41;13.50;78.10
32296;DHT22;18781;51.550;5.418;2023-02-18T06:44:07;13.60;78.20
32296;DHT22;18781;51.550;5.418;2023-02-18T06:46:32;13.50;78.20
32296;DHT22;18781;51.550;5.418;2023-02-18T06:48:58;13.50;78.20
32296;DHT22;18781;51.550;5.418;2023-02-18T06:51:24;13.50;78.20
32296;DHT22;18781;51.550;5.418;2023-02-18T06:53:50;13.50;78.10
32296;DHT22;18781;51.550;5.418;2023-02-18T06:56:16;13.50;78.00
32296;DHT22;18781;51.550;5.418;2023-02-18T06:58:41;13.50;77.90
32296;DHT22;18781;51.550;5.418;2023-02-18T07:01:07;13.50;77.90
32296;DHT22;18781;51.550;5.418;2023-02-18T07:03:33;13.50;77.80
32296;DHT22;18781;51.550;5.418;2023-02-18T07:05:59;13.50;77.70
32296;DHT22;18781;51.550;5.418;2023-02-18T07:08:24;13.50;77.60
32296;DHT22;18781;51.550;5.418;2023-02-18T07:10:50;13.50;77.90
32296;DHT22;18781;51.550;5.418;2023-02-18T07:13:16;13.50;77.40
32296;DHT22;18781;51.550;5.418;2023-02-18T07:15:41;13.50;77.30
32296;DHT22;18781;51.550;5.418;2023-02-18T07:18:07;13.50;77.10
32296;DHT22;18781;51.550;5.418;2023-02-18T07:20:32;13.50;77.20
32296;DHT22;18781;51.550;5.418;2023-02-18T07:22:58;13.50;77.30
32296;DHT22;18781;51.550;5.418;2023-02-18T07:25:24;13.40;77.20
32296;DHT22;18781;51.550;5.418;2023-02-18T07:27:50;13.40;77.20
32296;DHT22;18781;51.550;5.418;2023-02-18T07:30:17;13.40;77.20
32296;DHT22;18781;51.550;5.418;2023-02-18T07:32:43;13.50;77.30
32296;DHT22;18781;51.550;5.418;2023-02-18T07:35:11;13.40;77.10
32296;DHT22;18781;51.550;5.418;2023-02-18T07:37:37;13.50;77.00
32296;DHT22;18781;51.550;5.418;2023-02-18T07:40:03;13.40;77.00
32296;DHT22;18781;51.550;5.418;2023-02-18T07:42:29;13.40;77.00
32296;DHT22;18781;51.550;5.418;2023-02-18T07:44:54;13.40;76.90
32296;DHT22;18781;51.550;5.418;2023-02-18T07:47:20;13.40;76.90
32296;DHT22;18781;51.550;5.418;2023-02-18T07:49:46;13.30;76.80
32296;DHT22;18781;51.550;5.418;2023-02-18T07:52:12;13.30;76.80
32296;DHT22;18781;51.550;5.418;2023-02-18T07:54:38;13.30;76.90
32296;DHT22;18781;51.550;5.418;2023-02-18T07:57:03;13.30;76.80
32296;DHT22;18781;51.550;5.418;2023-02-18T07:59:31;13.30;76.80
32296;DHT22;18781;51.550;5.418;2023-02-18T08:01:57;13.30;76.40
32296;DHT22;18781;51.550;5.418;2023-02-18T08:04:22;13.30;76.40
32296;DHT22;18781;51.550;5.418;2023-02-18T08:06:49;13.30;76.40
32296;DHT22;18781;51.550;5.418;2023-02-18T08:09:15;13.30;76.20
32296;DHT22;18781;51.550;5.418;2023-02-18T08:11:41;13.30;76.20
32296;DHT22;18781;51.550;5.418;2023-02-18T08:14:07;13.30;76.20
32296;DHT22;18781;51.550;5.418;2023-02-18T08:16:34;13.30;76.00
32296;DHT22;18781;51.550;5.418;2023-02-18T08:19:02;13.30;76.40
32296;DHT22;18781;51.550;5.418;2023-02-18T08:21:28;13.30;75.90
32296;DHT22;18781;51.550;5.418;2023-02-18T08:23:54;13.30;76.00
32296;DHT22;18781;51.550;5.418;2023-02-18T08:26:21;13.30;75.90
32296;DHT22;18781;51.550;5.418;2023-02-18T08:28:47;13.30;76.00
32296;DHT22;18781;51.550;5.418;2023-02-18T08:31:24;13.30;76.00
32296;DHT22;18781;51.550;5.418;2023-02-18T08:33:51;13.30;75.70
32296;DHT22;18781;51.550;5.418;2023-02-18T08:36:17;13.30;75.60
32296;DHT22;18781;51.550;5.418;2023-02-18T08:38:43;13.40;75.20
32296;DHT22;18781;51.550;5.418;2023-02-18T08:41:09;13.30;75.30
32296;DHT22;18781;51.550;5.418;2023-02-18T08:43:35;13.40;75.00
32296;DHT22;18781;51.550;5.418;2023-02-18T08:46:01;13.40;74.90
32296;DHT22;18781;51.550;5.418;2023-02-18T08:48:27;13.40;74.80
32296;DHT22;18781;51.550;5.418;2023-02-18T08:50:53;13.40;74.70
32296;DHT22;18781;51.550;5.418;2023-02-18T08:53:18;13.40;74.70
32296;DHT22;18781;51.550;5.418;2023-02-18T08:55:44;13.40;74.40
32296;DHT22;18781;51.550;5.418;2023-02-18T08:58:10;13.40;74.20
32296;DHT22;18781;51.550;5.418;2023-02-18T09:00:37;13.40;74.20
32296;DHT22;18781;51.550;5.418;2023-02-18T09:03:03;13.40;74.20
32296;DHT22;18781;51.550;5.418;2023-02-18T09:05:29;13.40;74.00
32296;DHT22;18781;51.550;5.418;2023-02-18T09:07:54;13.40;74.10
32296;DHT22;18781;51.550;5.418;2023-02-18T09:10:20;13.40;73.90
32296;DHT22;18781;51.550;5.418;2023-02-18T09:12:46;13.40;74.00
32296;DHT22;18781;51.550;5.418;2023-02-18T09:15:12;13.40;74.10
32296;DHT22;18781;51.550;5.418;2023-02-18T09:17:37;13.40;73.90
32296;DHT22;18781;51.550;5.418;2023-02-18T09:20:04;13.40;73.80
32296;DHT22;18781;51.550;5.418;2023-02-18T09:22:30;13.40;73.80
32296;DHT22;18781;51.550;5.418;2023-02-18T09:24:57;13.40;73.70
32296;DHT22;18781;51.550;5.418;2023-02-18T09:27:23;13.40;73.70
32296;DHT22;18781;51.550;5.418;2023-02-18T09:29:48;13.40;73.80
32296;DHT22;18781;51.550;5.418;2023-02-18T09:32:15;13.40;73.70
32296;DHT22;18781;51.550;5.418;2023-02-18T09:34:43;13.40;73.50
32296;DHT22;18781;51.550;5.418;2023-02-18T09:37:08;13.40;73.50
32296;DHT22;18781;51.550;5.418;2023-02-18T09:39:35;13.40;73.40
32296;DHT22;18781;51.550;5.418;2023-02-18T09:42:04;13.40;73.50
32296;DHT22;18781;51.550;5.418;2023-02-18T09:47:10;13.40;73.30
32296;DHT22;18781;51.550;5.418;2023-02-18T09:49:40;13.40;73.10
32296;DHT22;18781;51.550;5.418;2023-02-18T09:52:15;13.40;72.70
32296;DHT22;18781;51.550;5.418;2023-02-18T09:54:42;13.40;73.00
32296;DHT22;18781;51.550;5.418;2023-02-18T09:57:30;13.40;73.00
32296;DHT22;18781;51.550;5.418;2023-02-18T10:00:04;13.40;72.70
32296;DHT22;18781;51.550;5.418;2023-02-18T10:02:33;13.40;72.80
32296;DHT22;18781;51.550;5.418;2023-02-18T10:04:59;13.40;72.80
32296;DHT22;18781;51.550;5.418;2023-02-18T10:07:28;13.50;72.80
32296;DHT22;18781;51.550;5.418;2023-02-18T10:09:58;13.40;72.80
32296;DHT22;18781;51.550;5.418;2023-02-18T10:12:26;13.40;72.60
32296;DHT22;18781;51.550;5.418;2023-02-18T10:14:54;13.40;72.70
32296;DHT22;18781;51.550;5.418;2023-02-18T10:17:22;13.40;72.50
32296;DHT22;18781;51.550;5.418;2023-02-18T10:19:51;13.50;72.60
32296;DHT22;18781;51.550;5.418;2023-02-18T10:22:17;13.50;72.60
32296;DHT22;18781;51.550;5.418;2023-02-18T10:24:58;13.50;72.30
32296;DHT22;18781;51.550;5.418;2023-02-18T10:27:30;13.50;72.30
32296;DHT22;18781;51.550;5.418;2023-02-18T10:30:17;13.50;72.40
32296;DHT22;18781;51.550;5.418;2023-02-18T10:32:46;13.50;72.40
32296;DHT22;18781;51.550;5.418;2023-02-18T10:45:52;13.60;72.40
32296;DHT22;18781;51.550;5.418;2023-02-18T10:48:33;13.60;72.70
32296;DHT22;18781;51.550;5.418;2023-02-18T10:51:14;13.60;72.30
32296;DHT22;18781;51.550;5.418;2023-02-18T10:53:41;13.60;72.30
32296;DHT22;18781;51.550;5.418;2023-02-18T10:59:12;13.70;72.40
32296;DHT22;18781;51.550;5.418;2023-02-18T11:01:39;13.70;72.60
32296;DHT22;18781;51.550;5.418;2023-02-18T11:04:19;13.70;72.70
32296;DHT22;18781;51.550;5.418;2023-02-18T11:06:47;13.70;73.10
32296;DHT22;18781;51.550;5.418;2023-02-18T11:09:49;13.70;73.00
32296;DHT22;18781;51.550;5.418;2023-02-18T11:12:43;13.70;73.10
32296;DHT22;18781;51.550;5.418;2023-02-18T11:17:39;13.70;73.20
32296;DHT22;18781;51.550;5.418;2023-02-18T11:20:26;13.70;73.20
32296;DHT22;18781;51.550;5.418;2023-02-18T11:25:27;13.80;72.90
32296;DHT22;18781;51.550;5.418;2023-02-18T11:27:59;13.80;73.00
32296;DHT22;18781;51.550;5.418;2023-02-18T11:30:30;13.80;73.00
32296;DHT22;18781;51.550;5.418;2023-02-18T11:33:03;13.90;73.00
32296;DHT22;18781;51.550;5.418;2023-02-18T11:35:32;13.90;73.20
32296;DHT22;18781;51.550;5.418;2023-02-18T11:38:01;13.90;73.30
32296;DHT22;18781;51.550;5.418;2023-02-18T11:40:34;13.90;73.50
32296;DHT22;18781;51.550;5.418;2023-02-18T11:43:13;13.90;73.50
32296;DHT22;18781;51.550;5.418;2023-02-18T11:45:39;13.90;73.70
32296;DHT22;18781;51.550;5.418;2023-02-18T11:48:18;13.90;73.60
32296;DHT22;18781;51.550;5.418;2023-02-18T11:50:50;14.00;73.80
32296;DHT22;18781;51.550;5.418;2023-02-18T11:53:36;14.00;73.60
32296;DHT22;18781;51.550;5.418;2023-02-18T11:56:17;14.00;74.30
32296;DHT22;18781;51.550;5.418;2023-02-18T11:58:46;14.00;73.60
32296;DHT22;18781;51.550;5.418;2023-02-18T12:03:59;14.00;73.30
32296;DHT22;18781;51.550;5.418;2023-02-18T12:09:31;14.10;73.30
32296;DHT22;18781;51.550;5.418;2023-02-18T12:15:05;14.10;73.40
32296;DHT22;18781;51.550;5.418;2023-02-18T12:17:39;14.20;73.70
32296;DHT22;18781;51.550;5.418;2023-02-18T12:26:27;14.30;73.70
32296;DHT22;18781;51.550;5.418;2023-02-18T12:37:49;14.60;73.20
32296;DHT22;18781;51.550;5.418;2023-02-18T12:43:09;14.60;72.60
32296;DHT22;18781;51.550;5.418;2023-02-18T12:48:36;14.70;72.30
32296;DHT22;18781;51.550;5.418;2023-02-18T13:05:43;14.80;71.80
32296;DHT22;18781;51.550;5.418;2023-02-18T13:13:41;14.80;71.70
32296;DHT22;18781;51.550;5.418;2023-02-18T13:16:14;14.80;71.80
32296;DHT22;18781;51.550;5.418;2023-02-18T13:18:49;14.80;71.90
32296;DHT22;18781;51.550;5.418;2023-02-18T13:21:18;14.90;71.80
32296;DHT22;18781;51.550;5.418;2023-02-18T13:24:05;14.90;71.90
32296;DHT22;18781;51.550;5.418;2023-02-18T13:26:32;14.90;71.80
32296;DHT22;18781;51.550;5.418;2023-02-18T13:32:00;14.90;71.60
32296;DHT22;18781;51.550;5.418;2023-02-18T13:40:03;15.00;71.90
32296;DHT22;18781;51.550;5.418;2023-02-18T13:42:35;15.00;71.80
32296;DHT22;18781;51.550;5.418;2023-02-18T13:45:02;15.10;71.80
32296;DHT22;18781;51.550;5.418;2023-02-18T13:47:36;15.10;71.80
32296;DHT22;18781;51.550;5.418;2023-02-18T13:55:57;15.20;71.40
32296;DHT22;18781;51.550;5.418;2023-02-18T13:58:34;15.20;71.20
32296;DHT22;18781;51.550;5.418;2023-02-18T14:01:03;15.30;70.90
32296;DHT22;18781;51.550;5.418;2023-02-18T14:05:56;15.20;71.10
32296;DHT22;18781;51.550;5.418;2023-02-18T14:08:32;15.30;71.00
32296;DHT22;18781;51.550;5.418;2023-02-18T14:16:09;15.30;70.80
32296;DHT22;18781;51.550;5.418;2023-02-18T14:21:37;15.40;70.70
32296;DHT22;18781;51.550;5.418;2023-02-18T14:24:05;15.40;70.70
32296;DHT22;18781;51.550;5.418;2023-02-18T14:26:45;15.50;70.50
32296;DHT22;18781;51.550;5.418;2023-02-18T14:29:16;15.50;70.30
32296;DHT22;18781;51.550;5.418;2023-02-18T14:40:17;15.50;69.80
32296;DHT22;18781;51.550;5.418;2023-02-18T14:51:14;15.60;69.80
32296;DHT22;18781;51.550;5.418;2023-02-18T14:53:44;15.60;69.50
32296;DHT22;18781;51.550;5.418;2023-02-18T14:56:13;15.50;69.40
32296;DHT22;18781;51.550;5.418;2023-02-18T14:58:46;15.50;69.50
32296;DHT22;18781;51.550;5.418;2023-02-18T15:03:41;15.60;69.30
32296;DHT22;18781;51.550;5.418;2023-02-18T15:08:54;15.60;69.20
32296;DHT22;18781;51.550;5.418;2023-02-18T15:11:22;15.60;69.30
32296;DHT22;18781;51.550;5.418;2023-02-18T15:13:49;15.50;69.20
32296;DHT22;18781;51.550;5.418;2023-02-18T15:16:30;15.60;69.90
32296;DHT22;18781;51.550;5.418;2023-02-18T15:18:59;15.50;69.10
32296;DHT22;18781;51.550;5.418;2023-02-18T15:24:18;15.50;69.20
32296;DHT22;18781;51.550;5.418;2023-02-18T15:26:47;15.50;69.30
32296;DHT22;18781;51.550;5.418;2023-02-18T15:29:19;15.50;69.30
32296;DHT22;18781;51.550;5.418;2023-02-18T15:31:47;15.50;69.30
32296;DHT22;18781;51.550;5.418;2023-02-18T15:34:31;15.50;69.30
32296;DHT22;18781;51.550;5.418;2023-02-18T15:37:02;15.50;69.40
32296;DHT22;18781;51.550;5.418;2023-02-18T15:39:28;15.50;69.80
32296;DHT22;18781;51.550;5.418;2023-02-18T15:41:56;15.50;69.40
32296;DHT22;18781;51.550;5.418;2023-02-18T15:44:25;15.50;69.20
32296;DHT22;18781;51.550;5.418;2023-02-18T15:46:52;15.50;70.30
32296;DHT22;18781;51.550;5.418;2023-02-18T15:49:22;15.50;69.30
32296;DHT22;18781;51.550;5.418;2023-02-18T15:51:49;15.50;69.10
32296;DHT22;18781;51.550;5.418;2023-02-18T15:54:21;15.50;69.30
32296;DHT22;18781;51.550;5.418;2023-02-18T15:56:53;15.50;69.40
32296;DHT22;18781;51.550;5.418;2023-02-18T15:59:24;15.50;69.10
32296;DHT22;18781;51.550;5.418;2023-02-18T16:01:53;15.50;69.20
32296;DHT22;18781;51.550;5.418;2023-02-18T16:04:21;15.50;69.20
32296;DHT22;18781;51.550;5.418;2023-02-18T16:06:52;15.50;69.20
32296;DHT22;18781;51.550;5.418;2023-02-18T16:09:31;15.50;69.10
32296;DHT22;18781;51.550;5.418;2023-02-18T16:12:03;15.50;69.60
32296;DHT22;18781;51.550;5.418;2023-02-18T16:14:44;15.50;69.20
32296;DHT22;18781;51.550;5.418;2023-02-18T16:17:22;15.50;69.10
32296;DHT22;18781;51.550;5.418;2023-02-18T16:25:14;15.50;69.20
32296;DHT22;18781;51.550;5.418;2023-02-18T16:30:27;15.40;69.50
32296;DHT22;18781;51.550;5.418;2023-02-18T16:32:56;15.40;69.50
32296;DHT22;18781;51.550;5.418;2023-02-18T16:35:23;15.40;69.70
32296;DHT22;18781;51.550;5.418;2023-02-18T16:37:49;15.30;69.80
32296;DHT22;18781;51.550;5.418;2023-02-18T16:42:51;15.30;70.10
32296;DHT22;18781;51.550;5.418;2023-02-18T16:45:17;15.30;70.20
32296;DHT22;18781;51.550;5.418;2023-02-18T16:47:47;15.30;70.30
32296;DHT22;18781;51.550;5.418;2023-02-18T16:50:19;15.20;70.30
32296;DHT22;18781;51.550;5.418;2023-02-18T16:52:46;15.20;70.40
32296;DHT22;18781;51.550;5.418;2023-02-18T16:57:41;15.10;70.50
32296;DHT22;18781;51.550;5.418;2023-02-18T17:00:07;15.10;70.60
32296;DHT22;18781;51.550;5.418;2023-02-18T17:02:33;15.10;70.90
32296;DHT22;18781;51.550;5.418;2023-02-18T17:05:02;15.10;71.10
32296;DHT22;18781;51.550;5.418;2023-02-18T17:07:30;15.00;71.30
32296;DHT22;18781;51.550;5.418;2023-02-18T17:09:58;15.00;71.40
32296;DHT22;18781;51.550;5.418;2023-02-18T17:12:24;15.00;71.50
32296;DHT22;18781;51.550;5.418;2023-02-18T17:14:50;15.00;71.70
32296;DHT22;18781;51.550;5.418;2023-02-18T17:17:17;14.90;71.80
32296;DHT22;18781;51.550;5.418;2023-02-18T17:19:46;14.90;72.00
32296;DHT22;18781;51.550;5.418;2023-02-18T17:22:12;14.90;72.00
32296;DHT22;18781;51.550;5.418;2023-02-18T17:24:38;14.80;72.10
32296;DHT22;18781;51.550;5.418;2023-02-18T17:27:04;14.80;72.30
32296;DHT22;18781;51.550;5.418;2023-02-18T17:29:29;14.80;72.40
32296;DHT22;18781;51.550;5.418;2023-02-18T17:31:55;14.80;72.50
32296;DHT22;18781;51.550;5.418;2023-02-18T17:34:25;14.80;72.50
32296;DHT22;18781;51.550;5.418;2023-02-18T17:36:51;14.70;72.70
32296;DHT22;18781;51.550;5.418;2023-02-18T17:39:17;14.70;72.70
32296;DHT22;18781;51.550;5.418;2023-02-18T17:41:43;14.70;72.90
32296;DHT22;18781;51.550;5.418;2023-02-18T17:44:20;14.60;72.90
32296;DHT22;18781;51.550;5.418;2023-02-18T17:46:47;14.60;73.20
32296;DHT22;18781;51.550;5.418;2023-02-18T17:49:14;14.60;73.00
32296;DHT22;18781;51.550;5.418;2023-02-18T17:51:40;14.60;73.10
32296;DHT22;18781;51.550;5.418;2023-02-18T17:54:14;14.50;73.10
32296;DHT22;18781;51.550;5.418;2023-02-18T17:56:41;14.50;73.50
32296;DHT22;18781;51.550;5.418;2023-02-18T17:59:07;14.50;73.40
32296;DHT22;18781;51.550;5.418;2023-02-18T18:01:33;14.50;73.40
32296;DHT22;18781;51.550;5.418;2023-02-18T18:03:58;14.50;73.40
32296;DHT22;18781;51.550;5.418;2023-02-18T18:06:24;14.50;73.40
32296;DHT22;18781;51.550;5.418;2023-02-18T18:08:50;14.50;73.50
32296;DHT22;18781;51.550;5.418;2023-02-18T18:11:18;14.50;73.50
32296;DHT22;18781;51.550;5.418;2023-02-18T18:13:44;14.40;73.60
32296;DHT22;18781;51.550;5.418;2023-02-18T18:16:12;14.40;73.60
32296;DHT22;18781;51.550;5.418;2023-02-18T18:18:38;14.40;73.70
32296;DHT22;18781;51.550;5.418;2023-02-18T18:21:04;14.40;73.70
32296;DHT22;18781;51.550;5.418;2023-02-18T18:23:30;14.40;73.80
32296;DHT22;18781;51.550;5.418;2023-02-18T18:25:58;14.30;73.80
32296;DHT22;18781;51.550;5.418;2023-02-18T18:28:26;14.40;74.00
32296;DHT22;18781;51.550;5.418;2023-02-18T18:30:53;14.30;74.00
32296;DHT22;18781;51.550;5.418;2023-02-18T18:33:26;14.30;74.00